createdAt,value
2022-10-03T00:00:21.063Z,98456.14
2022-10-03T00:03:36.255Z,98459.06
2022-10-03T00:06:44.365Z,98457.80
2022-10-03T00:09:27.258Z,98454.84
2022-10-03T00:12:13.378Z,98450.34
2022-10-03T00:15:05.977Z,98452.67
2022-10-03T00:17:53.670Z,98449.55
2022-10-03T00:20:50.098Z,98450.77
2022-10-03T00:23:40.217Z,98450.65
2022-10-03T00:26:38.045Z,98454.25
2022-10-03T00:29:42.542Z,98446.59
2022-10-03T00:32:22.716Z,98446.55
2022-10-03T00:35:14.487Z,98438.45
2022-10-03T00:38:13.796Z,98441.86
2022-10-03T00:41:12.497Z,98440.59
2022-10-03T00:43:59.251Z,98438.40
2022-10-03T00:46:56.719Z,98442.73
2022-10-03T00:49:51.613Z,98439.14
2022-10-03T00:52:52.319Z,98444.52
2022-10-03T00:55:35.340Z,98442.85
2022-10-03T00:58:30.932Z,98444.58
2022-10-03T01:01:35.582Z,98445.23
2022-10-03T01:04:26.916Z,98447.31
2022-10-03T01:07:14.884Z,98442.10
2022-10-03T01:10:14.355Z,98444.80
2022-10-03T01:12:57.528Z,98442.33
2022-10-03T01:15:31.116Z,98439.98
2022-10-03T01:18:11.713Z,98441.90
2022-10-03T01:21:08.422Z,98437.98
2022-10-03T01:23:45.061Z,98435.69
2022-10-03T01:26:15.698Z,98436.33
2022-10-03T01:29:31.508Z,98439.38
2022-10-03T01:32:22.609Z,98434.86
2022-10-03T01:34:57.055Z,98433.10
2022-10-03T01:37:40.238Z,98436.67
2022-10-03T01:40:31.946Z,98441.90
2022-10-03T01:43:19.778Z,98440.34
2022-10-03T01:46:06.569Z,98440.67
2022-10-03T01:48:49.978Z,98444.94
2022-10-03T01:51:32.155Z,98445.30
2022-10-03T01:54:07.504Z,98440.52
2022-10-03T01:57:00.726Z,98441.75
2022-10-03T01:59:53.593Z,98448.78
2022-10-03T02:02:54.790Z,98439.64
2022-10-03T02:05:43.791Z,98433.75
2022-10-03T02:08:19.384Z,98431.73
2022-10-03T02:11:10.579Z,98432.11
2022-10-03T02:13:48.405Z,98437.87
2022-10-03T02:16:42.026Z,98436.14
2022-10-03T02:19:15.620Z,98443.35
2022-10-03T02:21:51.269Z,98442.41
2022-10-03T02:24:43.972Z,98444.35
2022-10-03T02:27:51.209Z,98443.96
2022-10-03T02:30:40.273Z,98431.63
2022-10-03T02:33:40.313Z,98429.92
2022-10-03T02:36:08.407Z,98437.65
2022-10-03T02:39:09.770Z,98438.64
2022-10-03T02:42:26.123Z,98434.61
2022-10-03T02:45:22.556Z,98431.57
2022-10-03T02:48:31.634Z,98429.26
2022-10-03T02:51:23.601Z,98429.27
2022-10-03T02:54:27.285Z,98426.02
2022-10-03T02:57:11.343Z,98426.39
2022-10-03T02:59:41.309Z,98424.14
2022-10-03T03:02:27.893Z,98419.23
2022-10-03T03:05:19.162Z,98414.70
2022-10-03T03:08:06.135Z,98415.23
2022-10-03T03:10:58.390Z,98409.88
2022-10-03T03:14:05.058Z,98403.67
2022-10-03T03:16:42.002Z,98403.65
2022-10-03T03:19:34.685Z,98398.86
2022-10-03T03:22:27.694Z,98400.88
2022-10-03T03:25:01.543Z,98397.61
2022-10-03T03:27:49.238Z,98399.64
2022-10-03T03:30:22.382Z,98392.39
2022-10-03T03:33:09.891Z,98399.77
2022-10-03T03:35:59.978Z,98389.33
2022-10-03T03:38:58.869Z,98394.70
2022-10-03T03:41:47.083Z,98391.95
2022-10-03T03:44:37.331Z,98385.91
2022-10-03T03:47:16.532Z,98396.46
2022-10-03T03:50:26.081Z,98387.06
2022-10-03T03:53:04.740Z,98385.66
2022-10-03T03:55:39.255Z,98384.16
2022-10-03T03:58:33.639Z,98378.05
2022-10-03T04:01:24.451Z,98383.70
2022-10-03T04:04:32.459Z,98384.23
2022-10-03T04:07:21.808Z,98383.70
2022-10-03T04:09:54.783Z,98381.20
2022-10-03T04:12:43.016Z,98382.84
2022-10-03T04:15:39.981Z,98380.75
2022-10-03T04:18:59.192Z,98379.61
2022-10-03T04:21:55.809Z,98380.89
2022-10-03T04:24:40.841Z,98381.86
2022-10-03T04:27:39.790Z,98375.79
2022-10-03T04:30:33.511Z,98376.30
2022-10-03T04:33:17.186Z,98381.25
2022-10-03T04:35:45.100Z,98377.58
2022-10-03T04:38:27.373Z,98376.25
2022-10-03T04:41:14.511Z,98384.48
2022-10-03T04:43:52.605Z,98386.31
2022-10-03T04:46:33.003Z,98380.07
2022-10-03T04:49:35.790Z,98382.86
2022-10-03T04:52:50.310Z,98377.05
2022-10-03T04:55:51.764Z,98383.83
2022-10-03T04:58:26.961Z,98375.95
2022-10-03T05:01:22.785Z,98375.99
2022-10-03T05:04:27.068Z,98372.64
2022-10-03T05:07:22.616Z,98371.67
2022-10-03T05:10:17.493Z,98373.24
2022-10-03T05:13:18.659Z,98371.43
2022-10-03T05:16:09.324Z,98371.90
2022-10-03T05:19:04.572Z,98374.43
2022-10-03T05:22:12.116Z,98359.56
2022-10-03T05:25:10.666Z,98357.61
2022-10-03T05:27:55.765Z,98352.27
2022-10-03T05:30:42.085Z,98350.95
2022-10-03T05:33:46.205Z,98352.73
2022-10-03T05:36:35.653Z,98349.97
2022-10-03T05:39:42.414Z,98351.60
2022-10-03T05:42:29.645Z,98359.90
2022-10-03T05:45:33.141Z,98362.71
2022-10-03T05:48:22.847Z,98362.98
2022-10-03T05:51:34.227Z,98359.51
2022-10-03T05:54:23.855Z,98356.83
2022-10-03T05:57:24.565Z,98353.91
2022-10-03T06:00:19.948Z,98355.93
2022-10-03T06:03:03.024Z,98354.41
2022-10-03T06:06:08.996Z,98352.36
2022-10-03T06:08:41.584Z,98350.92
2022-10-03T06:11:27.574Z,98350.98
2022-10-03T06:14:20.572Z,98349.80
2022-10-03T06:17:10.141Z,98345.50
2022-10-03T06:19:45.582Z,98351.62
2022-10-03T06:22:32.750Z,98349.74
2022-10-03T06:25:11.163Z,98351.11
2022-10-03T06:27:57.697Z,98354.50
2022-10-03T06:31:06.883Z,98360.00
2022-10-03T06:34:03.117Z,98359.28
2022-10-03T06:37:03.631Z,98369.63
2022-10-03T06:39:59.624Z,98372.25
2022-10-03T06:42:52.738Z,98371.05
2022-10-03T06:45:25.618Z,98364.70
2022-10-03T06:48:17.815Z,98366.41
2022-10-03T06:51:19.751Z,98365.44
2022-10-03T06:53:54.250Z,98364.88
2022-10-03T06:57:03.588Z,98369.16
2022-10-03T06:59:53.588Z,98371.29
2022-10-03T07:02:40.170Z,98370.01
2022-10-03T07:05:43.137Z,98364.89
2022-10-03T07:08:53.639Z,98377.41
2022-10-03T07:11:49.661Z,98370.20
2022-10-03T07:14:38.281Z,98363.80
2022-10-03T07:17:50.587Z,98363.11
2022-10-03T07:20:46.306Z,98360.99
2022-10-03T07:23:55.413Z,98357.79
2022-10-03T07:26:48.730Z,98366.14
2022-10-03T07:29:28.513Z,98367.31
2022-10-03T07:32:39.263Z,98367.90
2022-10-03T07:35:25.676Z,98373.50
2022-10-03T07:38:48.451Z,98364.89
2022-10-03T07:41:25.187Z,98366.84
2022-10-03T07:44:19.743Z,98366.79
2022-10-03T07:46:53.540Z,98361.94
2022-10-03T07:49:27.655Z,98368.73
2022-10-03T07:52:39.798Z,98369.29
2022-10-03T07:55:38.861Z,98369.52
2022-10-03T07:58:44.619Z,98372.41
2022-10-03T08:01:27.638Z,98372.50
2022-10-03T08:03:58.390Z,98375.20
2022-10-03T08:07:01.896Z,98376.34
2022-10-03T08:10:09.472Z,98381.20
2022-10-03T08:13:16.355Z,98381.39
2022-10-03T08:15:49.744Z,98382.10
2022-10-03T08:18:34.364Z,98385.36
2022-10-03T08:21:06.266Z,98386.29
2022-10-03T08:23:59.438Z,98387.95
2022-10-03T08:26:47.697Z,98388.39
2022-10-03T08:30:00.337Z,98396.20
2022-10-03T08:33:00.855Z,98390.94
2022-10-03T08:35:50.242Z,98389.95
2022-10-03T08:38:38.462Z,98392.77
2022-10-03T08:41:57.323Z,98389.31
2022-10-03T08:44:37.666Z,98394.57
2022-10-03T08:47:05.598Z,98387.10
2022-10-03T08:50:05.667Z,98389.13
2022-10-03T08:53:14.463Z,98390.04
2022-10-03T08:56:09.724Z,98392.27
2022-10-03T08:59:14.708Z,98388.04
2022-10-03T09:01:56.551Z,98393.09
2022-10-03T09:04:54.718Z,98392.54
2022-10-03T09:07:40.541Z,98382.64
2022-10-03T09:10:33.013Z,98384.63
2022-10-03T09:13:53.013Z,98379.05
2022-10-03T09:16:55.527Z,98380.73
2022-10-03T09:19:56.927Z,98382.36
2022-10-03T09:22:50.230Z,98375.84
2022-10-03T09:25:36.135Z,98383.63
2022-10-03T09:28:39.218Z,98380.39
2022-10-03T09:31:48.255Z,98380.42
2022-10-03T09:34:37.566Z,98379.17
2022-10-03T09:37:13.166Z,98381.84
2022-10-03T09:40:05.776Z,98382.72
2022-10-03T09:43:08.238Z,98375.28
2022-10-03T09:46:02.136Z,98376.59
2022-10-03T09:48:49.149Z,98376.30
2022-10-03T09:51:56.029Z,98374.20
2022-10-03T09:54:50.600Z,98369.13
2022-10-03T09:57:29.932Z,98368.45
2022-10-03T10:00:08.827Z,98366.34
2022-10-03T10:03:08.391Z,98368.64
2022-10-03T10:06:08.455Z,98367.36
2022-10-03T10:08:55.135Z,98373.80
2022-10-03T10:12:02.424Z,98378.08
2022-10-03T10:14:45.177Z,98372.27
2022-10-03T10:17:49.259Z,98374.05
2022-10-03T10:20:55.676Z,98367.61
2022-10-03T10:23:29.718Z,98368.73
2022-10-03T10:26:30.599Z,98365.80
2022-10-03T10:29:31.323Z,98364.88
2022-10-03T10:32:19.124Z,98364.91
2022-10-03T10:35:21.384Z,98370.48
2022-10-03T10:38:17.042Z,98372.22
2022-10-03T10:40:59.801Z,98370.60
2022-10-03T10:43:41.526Z,98368.29
2022-10-03T10:46:18.187Z,98375.92
2022-10-03T10:49:30.795Z,98373.93
2022-10-03T10:52:17.252Z,98368.66
2022-10-03T10:55:27.330Z,98370.50
2022-10-03T10:58:33.069Z,98367.02
2022-10-03T11:01:45.146Z,98373.20
2022-10-03T11:04:50.872Z,98374.55
2022-10-03T11:07:20.322Z,98370.45
2022-10-03T11:10:27.144Z,98375.13
2022-10-03T11:13:35.740Z,98374.84
2022-10-03T11:16:35.827Z,98372.08
2022-10-03T11:19:27.320Z,98372.56
2022-10-03T11:22:19.291Z,98375.02
2022-10-03T11:25:09.295Z,98371.52
2022-10-03T11:28:02.643Z,98374.66
2022-10-03T11:31:01.219Z,98381.24
2022-10-03T11:34:00.043Z,98372.36
2022-10-03T11:36:33.914Z,98379.49
2022-10-03T11:39:05.943Z,98373.85
2022-10-03T11:42:03.652Z,98384.48
2022-10-03T11:45:00.079Z,98378.47
2022-10-03T11:47:55.446Z,98376.10
2022-10-03T11:50:42.326Z,98380.28
2022-10-03T11:53:20.278Z,98376.31
2022-10-03T11:55:54.192Z,98370.05
2022-10-03T11:58:38.349Z,98369.04
2022-10-03T12:01:26.828Z,98365.89
2022-10-03T12:04:14.231Z,98375.55
2022-10-03T12:07:24.964Z,98366.10
2022-10-03T12:10:03.691Z,98358.17
2022-10-03T12:12:50.269Z,98359.48
2022-10-03T12:15:36.992Z,98357.56
2022-10-03T12:18:18.413Z,98367.48
2022-10-03T12:21:04.279Z,98364.57
2022-10-03T12:24:02.340Z,98362.33
2022-10-03T12:26:56.313Z,98370.52
2022-10-03T12:29:27.121Z,98375.39
2022-10-03T12:32:20.442Z,98376.70
2022-10-03T12:35:00.406Z,98372.43
2022-10-03T12:37:34.669Z,98374.48
2022-10-03T12:40:14.332Z,98376.73
2022-10-03T12:43:00.557Z,98377.45
2022-10-03T12:45:59.090Z,98372.81
2022-10-03T12:49:07.659Z,98385.00
2022-10-03T12:52:02.384Z,98390.27
2022-10-03T12:55:20.803Z,98394.95
2022-10-03T12:58:18.852Z,98391.33
2022-10-03T13:01:23.690Z,98390.61
2022-10-03T13:04:34.367Z,98391.15
2022-10-03T13:07:19.931Z,98394.25
2022-10-03T13:10:04.832Z,98397.20
2022-10-03T13:12:41.233Z,98403.36
2022-10-03T13:15:45.522Z,98402.23
2022-10-03T13:18:45.337Z,98409.49
2022-10-03T13:21:43.948Z,98417.59
2022-10-03T13:24:22.776Z,98416.05
2022-10-03T13:27:21.983Z,98420.71
2022-10-03T13:29:58.700Z,98419.82
2022-10-03T13:32:44.850Z,98419.52
2022-10-03T13:35:50.133Z,98419.83
2022-10-03T13:38:47.438Z,98422.67
2022-10-03T13:41:33.698Z,98421.06
2022-10-03T13:44:29.011Z,98418.70
2022-10-03T13:47:27.551Z,98421.23
2022-10-03T13:50:06.337Z,98427.55
2022-10-03T13:52:45.182Z,98437.41
2022-10-03T13:55:18.902Z,98440.33
2022-10-03T13:57:56.167Z,98435.77
2022-10-03T14:00:44.862Z,98436.93
2022-10-03T14:03:45.723Z,98436.33
2022-10-03T14:06:39.605Z,98442.89
2022-10-03T14:09:29.355Z,98447.14
2022-10-03T14:12:09.202Z,98445.70
2022-10-03T14:15:15.949Z,98445.04
2022-10-03T14:18:11.329Z,98449.11
2022-10-03T14:21:18.091Z,98456.63
2022-10-03T14:23:55.616Z,98453.64
2022-10-03T14:26:56.526Z,98451.13
2022-10-03T14:29:35.646Z,98459.93
2022-10-03T14:32:46.891Z,98454.29
2022-10-03T14:35:38.030Z,98458.77
2022-10-03T14:38:56.534Z,98460.47
2022-10-03T14:41:44.410Z,98462.91
2022-10-03T14:44:38.839Z,98458.35
2022-10-03T14:47:16.432Z,98454.39
2022-10-03T14:50:00.285Z,98449.65
2022-10-03T14:52:41.275Z,98452.55
2022-10-03T14:55:45.376Z,98450.21
2022-10-03T14:58:36.238Z,98450.61
2022-10-03T15:01:07.986Z,98445.80
2022-10-03T15:03:40.726Z,98436.66
2022-10-03T15:06:33.158Z,98444.27
2022-10-03T15:09:18.593Z,98446.15
2022-10-03T15:12:14.304Z,98459.11
2022-10-03T15:14:55.203Z,98464.83
2022-10-03T15:17:28.585Z,98469.14
2022-10-03T15:20:00.727Z,98476.45
2022-10-03T15:22:43.489Z,98473.75
2022-10-03T15:25:34.975Z,98471.55
2022-10-03T15:28:22.622Z,98481.23
2022-10-03T15:30:54.486Z,98470.48
2022-10-03T15:33:33.794Z,98479.21
2022-10-03T15:36:27.355Z,98486.09
2022-10-03T15:39:00.654Z,98494.72
2022-10-03T15:41:38.338Z,98506.02
2022-10-03T15:44:33.680Z,98503.92
2022-10-03T15:47:22.141Z,98504.63
2022-10-03T15:50:13.638Z,98500.77
2022-10-03T15:53:17.850Z,98502.71
2022-10-03T15:56:10.430Z,98502.94
2022-10-03T15:58:49.338Z,98509.35
2022-10-03T16:01:29.301Z,98510.23
2022-10-03T16:04:05.677Z,98515.73
2022-10-03T16:07:03.387Z,98523.42
2022-10-03T16:09:51.012Z,98531.28
2022-10-03T16:12:20.470Z,98529.37
2022-10-03T16:14:57.756Z,98537.34
2022-10-03T16:17:52.977Z,98543.58
2022-10-03T16:20:42.143Z,98545.69
2022-10-03T16:23:19.789Z,98553.54
2022-10-03T16:25:57.560Z,98559.44
2022-10-03T16:28:39.535Z,98556.59
2022-10-03T16:31:19.508Z,98560.65
2022-10-03T16:34:01.182Z,98559.02
2022-10-03T16:36:41.877Z,98565.42
2022-10-03T16:39:38.612Z,98566.48
2022-10-03T16:42:18.874Z,98570.27
2022-10-03T16:44:46.913Z,98574.65
2022-10-03T16:47:28.882Z,98580.15
2022-10-03T16:50:19.411Z,98584.52
2022-10-03T16:52:53.223Z,98587.59
2022-10-03T16:55:29.525Z,98593.25
2022-10-03T16:58:05.786Z,98597.17
2022-10-03T17:00:44.445Z,98597.56
2022-10-03T17:03:32.654Z,98604.54
2022-10-03T17:06:04.765Z,98607.45
2022-10-03T17:08:42.548Z,98608.05
2022-10-03T17:11:21.600Z,98612.46
2022-10-03T17:13:55.503Z,98615.95
2022-10-03T17:16:47.859Z,98618.78
2022-10-03T17:19:38.120Z,98624.38
2022-10-03T17:22:16.059Z,98632.24
2022-10-03T17:25:17.955Z,98631.70
2022-10-03T17:27:50.972Z,98630.05
2022-10-03T17:30:34.161Z,98636.80
2022-10-03T17:33:16.819Z,98638.77
2022-10-03T17:36:05.264Z,98636.91
2022-10-03T17:38:52.003Z,98637.59
2022-10-03T17:41:32.167Z,98640.92
2022-10-03T17:44:44.092Z,98641.89
2022-10-03T17:47:26.883Z,98643.73
2022-10-03T17:50:20.451Z,98640.27
2022-10-03T17:52:54.890Z,98644.12
2022-10-03T17:55:44.775Z,98647.02
2022-10-03T17:58:18.177Z,98644.31
2022-10-03T18:00:46.017Z,98650.43
2022-10-03T18:03:32.532Z,98651.75
2022-10-03T18:06:20.446Z,98656.35
2022-10-03T18:08:52.540Z,98661.35
2022-10-03T18:11:26.274Z,98656.50
2022-10-03T18:14:03.683Z,98660.34
2022-10-03T18:16:37.745Z,98660.77
2022-10-03T18:19:08.418Z,98666.14
2022-10-03T18:21:54.778Z,98666.77
2022-10-03T18:24:49.877Z,98667.88
2022-10-03T18:27:38.331Z,98669.75
2022-10-03T18:30:21.050Z,98672.86
2022-10-03T18:32:51.835Z,98674.55
2022-10-03T18:35:29.981Z,98678.27
2022-10-03T18:38:11.292Z,98681.73
2022-10-03T18:40:50.091Z,98679.13
2022-10-03T18:43:31.622Z,98686.85
2022-10-03T18:46:11.971Z,98693.13
2022-10-03T18:49:23.986Z,98695.14
2022-10-03T18:52:01.274Z,98697.63
2022-10-03T18:54:38.714Z,98702.53
2022-10-03T18:57:18.353Z,98702.25
2022-10-03T18:59:53.080Z,98703.11
2022-10-03T19:02:39.585Z,98703.31
2022-10-03T19:05:33.910Z,98706.51
2022-10-03T19:08:30.889Z,98712.77
2022-10-03T19:11:26.922Z,98716.33
2022-10-03T19:13:55.475Z,98716.02
2022-10-03T19:16:30.292Z,98717.89
2022-10-03T19:19:10.256Z,98721.90
2022-10-03T19:21:42.553Z,98724.33
2022-10-03T19:24:34.482Z,98722.26
2022-10-03T19:27:17.703Z,98727.31
2022-10-03T19:29:56.331Z,98726.81
2022-10-03T19:32:32.288Z,98724.60
2022-10-03T19:35:04.860Z,98731.49
2022-10-03T19:37:52.009Z,98735.96
2022-10-03T19:40:51.889Z,98735.92
2022-10-03T19:43:19.812Z,98743.70
2022-10-03T19:46:15.643Z,98745.14
2022-10-03T19:49:10.835Z,98749.08
2022-10-03T19:51:39.907Z,98755.11
2022-10-03T19:54:33.959Z,98757.61
2022-10-03T19:57:05.622Z,98762.11
2022-10-03T19:59:53.172Z,98757.67
2022-10-03T20:02:25.081Z,98760.77
2022-10-03T20:04:57.737Z,98764.79
2022-10-03T20:07:46.164Z,98763.39
2022-10-03T20:10:48.079Z,98765.13
2022-10-03T20:13:16.828Z,98760.05
2022-10-03T20:15:52.985Z,98765.03
2022-10-03T20:18:25.659Z,98763.35
2022-10-03T20:20:58.461Z,98765.95
2022-10-03T20:23:34.180Z,98763.58
2022-10-03T20:26:19.965Z,98765.64
2022-10-03T20:28:58.343Z,98762.42
2022-10-03T20:31:31.160Z,98761.10
2022-10-03T20:34:04.071Z,98765.34
2022-10-03T20:36:39.733Z,98769.27
2022-10-03T20:39:11.098Z,98774.13
2022-10-03T20:41:42.470Z,98776.28
2022-10-03T20:44:16.387Z,98777.20
2022-10-03T20:47:13.628Z,98776.55
2022-10-03T20:49:48.396Z,98775.98
2022-10-03T20:52:25.862Z,98776.89
2022-10-03T20:55:01.572Z,98779.74
2022-10-03T20:57:40.698Z,98781.70
2022-10-03T21:00:14.922Z,98778.09
2022-10-03T21:02:54.653Z,98785.24
2022-10-03T21:05:38.245Z,98789.46
2022-10-03T21:08:41.547Z,98790.73
2022-10-03T21:11:24.117Z,98797.18
2022-10-03T21:13:58.100Z,98797.72
2022-10-03T21:16:38.763Z,98798.96
2022-10-03T21:19:41.206Z,98799.55
2022-10-03T21:22:16.503Z,98794.39
2022-10-03T21:25:06.947Z,98802.14
2022-10-03T21:27:35.224Z,98801.61
2022-10-03T21:30:17.755Z,98802.89
2022-10-03T21:33:14.879Z,98805.35
2022-10-03T21:35:47.399Z,98807.20
2022-10-03T21:38:29.026Z,98799.84
2022-10-03T21:41:24.294Z,98801.77
2022-10-03T21:43:59.591Z,98797.71
2022-10-03T21:47:09.340Z,98796.69
2022-10-03T21:50:02.054Z,98796.51
2022-10-03T21:52:46.132Z,98795.86
2022-10-03T21:55:52.370Z,98792.73
2022-10-03T21:58:37.090Z,98795.50
2022-10-03T22:01:30.631Z,98793.27
2022-10-03T22:04:07.755Z,98792.89
2022-10-03T22:06:55.747Z,98797.95
2022-10-03T22:09:26.195Z,98793.33
2022-10-03T22:11:59.542Z,98799.17
2022-10-03T22:15:04.920Z,98795.23
2022-10-03T22:18:05.362Z,98796.36
2022-10-03T22:20:36.638Z,98799.59
2022-10-03T22:24:01.903Z,98798.61
2022-10-03T22:26:50.218Z,98798.91
2022-10-03T22:29:48.774Z,98798.91
2022-10-03T22:32:26.123Z,98800.02
2022-10-03T22:35:31.305Z,98808.22
2022-10-03T22:38:03.918Z,98809.66
2022-10-03T22:40:36.313Z,98812.02
2022-10-03T22:43:06.353Z,98810.88
2022-10-03T22:45:41.605Z,98802.67
2022-10-03T22:48:18.725Z,98804.35
2022-10-03T22:50:49.921Z,98806.09
2022-10-03T22:53:24.169Z,98808.17
2022-10-03T22:56:01.047Z,98807.11
2022-10-03T22:58:34.078Z,98803.37
2022-10-03T23:01:06.452Z,98799.92
2022-10-03T23:03:35.690Z,98799.98
2022-10-03T23:06:15.941Z,98795.48
2022-10-03T23:08:52.862Z,98801.73
2022-10-03T23:11:25.340Z,98795.34
2022-10-03T23:14:06.473Z,98791.72
2022-10-03T23:17:24.052Z,98788.05
2022-10-03T23:20:22.609Z,98786.41
2022-10-03T23:22:58.810Z,98785.69
2022-10-03T23:25:40.706Z,98792.34
2022-10-03T23:28:14.812Z,98791.25
2022-10-03T23:30:54.501Z,98795.34
2022-10-03T23:33:33.963Z,98795.45
2022-10-03T23:36:13.559Z,98798.11
2022-10-03T23:38:41.463Z,98795.45
2022-10-03T23:41:31.271Z,98797.63
2022-10-03T23:43:59.675Z,98799.33
2022-10-03T23:46:31.088Z,98795.45
2022-10-03T23:49:03.345Z,98790.92
2022-10-03T23:51:38.217Z,98791.08
2022-10-03T23:54:12.441Z,98794.67
2022-10-03T23:56:46.052Z,98799.31
2022-10-03T23:59:13.996Z,98800.43
